createdAt,value
2023-01-25T00:00:03.404Z,86.7
2023-01-25T00:03:03.537Z,86.7
2023-01-25T00:06:03.411Z,86.7
2023-01-25T00:09:03.408Z,86.7
2023-01-25T00:12:03.276Z,86.7
2023-01-25T00:15:03.406Z,87.1
2023-01-25T00:18:03.375Z,87.1
2023-01-25T00:21:03.364Z,87.1
2023-01-25T00:24:03.630Z,87.1
2023-01-25T00:27:03.376Z,87.1
2023-01-25T00:30:03.361Z,87.1
2023-01-25T00:33:03.347Z,87.1
2023-01-25T00:36:03.376Z,87.1
2023-01-25T00:39:03.419Z,87.5
2023-01-25T00:42:03.413Z,87.5
2023-01-25T00:45:03.358Z,87.5
2023-01-25T00:48:03.392Z,87.5
2023-01-25T00:51:03.369Z,87.5
2023-01-25T00:54:03.361Z,87.5
2023-01-25T00:57:03.344Z,87.5
2023-01-25T01:00:03.440Z,87.5
2023-01-25T01:03:03.351Z,87.5
2023-01-25T01:06:03.346Z,88
2023-01-25T01:09:03.349Z,88
2023-01-25T01:12:03.338Z,88
2023-01-25T01:15:03.484Z,88
2023-01-25T01:18:03.371Z,88
2023-01-25T01:21:03.313Z,88
2023-01-25T01:24:03.557Z,88.2
2023-01-25T01:27:03.382Z,88.2
2023-01-25T01:30:03.369Z,88.2
2023-01-25T01:33:03.388Z,88.2
2023-01-25T01:36:03.386Z,88.2
2023-01-25T01:39:03.409Z,88.2
2023-01-25T01:42:03.308Z,88.2
2023-01-25T01:45:03.398Z,88.2
2023-01-25T01:48:03.385Z,88.2
2023-01-25T01:51:03.442Z,88.2
2023-01-25T01:54:03.384Z,88.2
2023-01-25T01:57:03.366Z,88.2
2023-01-25T02:00:03.370Z,88.4
2023-01-25T02:03:03.414Z,88.4
2023-01-25T02:06:03.272Z,88.4
2023-01-25T02:09:03.365Z,88.4
2023-01-25T02:12:03.371Z,88.4
2023-01-25T02:15:03.377Z,88.7
2023-01-25T02:18:03.381Z,88.7
2023-01-25T02:21:03.428Z,88.7
2023-01-25T02:24:03.636Z,88.7
2023-01-25T02:27:03.324Z,88.7
2023-01-25T02:30:03.342Z,88.7
2023-01-25T02:33:03.363Z,88.7
2023-01-25T02:36:03.303Z,88.7
2023-01-25T02:39:03.383Z,88.7
2023-01-25T02:42:03.366Z,88.7
2023-01-25T02:45:03.353Z,88.7
2023-01-25T02:48:03.439Z,88.7
2023-01-25T02:51:03.421Z,88.6
2023-01-25T02:54:03.407Z,88.6
2023-01-25T02:57:03.359Z,88.6
2023-01-25T03:00:03.347Z,88.6
2023-01-25T03:03:03.582Z,88.6
2023-01-25T03:06:03.411Z,88.6
2023-01-25T03:09:03.380Z,88.6
2023-01-25T03:12:03.371Z,88.6
2023-01-25T03:15:03.348Z,88.6
2023-01-25T03:18:06.967Z,88.6
2023-01-25T03:21:03.364Z,88.7
2023-01-25T03:24:03.568Z,88.7
2023-01-25T03:27:03.502Z,88.7
2023-01-25T03:30:03.375Z,88.7
2023-01-25T03:33:03.373Z,88.7
2023-01-25T03:36:03.767Z,88.7
2023-01-25T03:39:03.356Z,88.7
2023-01-25T03:42:03.315Z,88.7
2023-01-25T03:45:03.434Z,88.9
2023-01-25T03:48:03.365Z,88.9
2023-01-25T03:51:03.394Z,88.9
2023-01-25T03:54:03.323Z,88.9
2023-01-25T03:57:03.351Z,88.9
2023-01-25T04:00:03.550Z,88.9
2023-01-25T04:03:03.406Z,88.9
2023-01-25T04:06:03.397Z,89
2023-01-25T04:09:03.354Z,89
2023-01-25T04:12:03.345Z,89
2023-01-25T04:15:03.348Z,88.9
2023-01-25T04:18:03.433Z,88.9
2023-01-25T04:21:03.331Z,88.9
2023-01-25T04:24:03.559Z,88.9
2023-01-25T04:27:03.421Z,88.9
2023-01-25T04:30:03.331Z,88.9
2023-01-25T04:33:03.435Z,88.9
2023-01-25T04:36:03.393Z,88.9
2023-01-25T04:39:03.338Z,88.9
2023-01-25T04:42:03.408Z,88.9
2023-01-25T04:45:03.516Z,88.8
2023-01-25T04:48:03.429Z,88.8
2023-01-25T04:51:03.358Z,88.8
2023-01-25T04:54:03.338Z,88.8
2023-01-25T04:57:03.357Z,88.8
2023-01-25T05:00:03.429Z,88.8
2023-01-25T05:03:03.378Z,88.8
2023-01-25T05:06:03.395Z,89
2023-01-25T05:09:03.399Z,89
2023-01-25T05:12:03.344Z,89
2023-01-25T05:15:03.359Z,89
2023-01-25T05:18:03.339Z,89
2023-01-25T05:21:03.377Z,89
2023-01-25T05:24:03.578Z,89
2023-01-25T05:27:03.335Z,89
2023-01-25T05:30:03.407Z,89
2023-01-25T05:33:04.165Z,89
2023-01-25T05:36:03.384Z,89
2023-01-25T05:39:03.541Z,89
2023-01-25T05:42:03.347Z,89
2023-01-25T05:45:03.588Z,89
2023-01-25T05:48:03.360Z,89
2023-01-25T05:51:03.347Z,89
2023-01-25T05:54:03.353Z,89
2023-01-25T05:57:03.562Z,89
2023-01-25T06:00:03.441Z,89
2023-01-25T06:03:03.906Z,89
2023-01-25T06:06:03.334Z,89
2023-01-25T06:09:03.341Z,89.1
2023-01-25T06:12:03.445Z,89.1
2023-01-25T06:15:03.368Z,89.1
2023-01-25T06:18:03.444Z,89.1
2023-01-25T06:21:03.451Z,89.1
2023-01-25T06:24:03.520Z,89.1
2023-01-25T06:27:03.433Z,89.1
2023-01-25T06:30:03.392Z,89.1
2023-01-25T06:33:03.368Z,89.1
2023-01-25T06:36:03.381Z,89.1
2023-01-25T06:39:03.397Z,89.1
2023-01-25T06:42:03.357Z,89.1
2023-01-25T06:45:03.509Z,89.1
2023-01-25T06:48:03.368Z,89.1
2023-01-25T06:51:03.440Z,89.1
2023-01-25T06:54:03.340Z,89.1
2023-01-25T06:57:03.395Z,89.1
2023-01-25T07:00:03.463Z,89.1
2023-01-25T07:03:03.556Z,88.8
2023-01-25T07:06:03.344Z,88.8
2023-01-25T07:09:03.346Z,88.8
2023-01-25T07:12:03.431Z,88.8
2023-01-25T07:15:03.430Z,88.8
2023-01-25T07:18:18.988Z,88.8
2023-01-25T07:21:03.449Z,88.8
2023-01-25T07:24:03.727Z,88.8
2023-01-25T07:27:03.429Z,88.8
2023-01-25T07:30:03.420Z,88.8
2023-01-25T07:33:03.442Z,88.8
2023-01-25T07:36:03.520Z,88.3
2023-01-25T07:39:03.444Z,88.3
2023-01-25T07:42:03.387Z,88.3
2023-01-25T07:45:03.422Z,88.3
2023-01-25T07:48:03.433Z,88.3
2023-01-25T07:51:03.489Z,88.3
2023-01-25T07:54:03.437Z,88.3
2023-01-25T07:57:03.386Z,88.1
2023-01-25T08:00:04.183Z,88.1
2023-01-25T08:03:03.413Z,88.1
2023-01-25T08:06:03.473Z,88.1
2023-01-25T08:09:03.351Z,88.1
2023-01-25T08:12:03.436Z,88.1
2023-01-25T08:15:03.532Z,88.1
2023-01-25T08:18:03.437Z,88.1
2023-01-25T08:21:03.469Z,88.1
2023-01-25T08:24:03.735Z,88.1
2023-01-25T08:27:03.378Z,88.1
2023-01-25T08:30:03.549Z,88.1
2023-01-25T08:33:03.335Z,88.1
2023-01-25T08:36:03.380Z,88
2023-01-25T08:39:03.399Z,88
2023-01-25T08:42:03.443Z,88
2023-01-25T08:45:03.414Z,88
2023-01-25T08:48:03.414Z,88
2023-01-25T08:51:03.478Z,87.9
2023-01-25T08:54:03.482Z,87.9
2023-01-25T08:57:03.525Z,87.9
2023-01-25T09:00:03.639Z,87.9
2023-01-25T09:03:03.457Z,87.9
2023-01-25T09:06:03.811Z,87.9
2023-01-25T09:09:03.416Z,87.6
2023-01-25T09:12:03.331Z,87.6
2023-01-25T09:15:03.417Z,87.6
2023-01-25T09:18:03.492Z,87.6
2023-01-25T09:21:03.428Z,87.6
2023-01-25T09:24:11.204Z,87.6
2023-01-25T09:27:03.405Z,87.6
2023-01-25T09:30:10.837Z,87.6
2023-01-25T09:33:03.787Z,87.6
2023-01-25T09:36:03.466Z,87.6
2023-01-25T09:39:03.448Z,87.6
2023-01-25T09:42:17.361Z,87.6
2023-01-25T09:45:04.018Z,87.6
2023-01-25T09:48:03.472Z,87.6
2023-01-25T09:51:03.379Z,88.2
2023-01-25T09:54:03.385Z,88.2
2023-01-25T09:57:03.436Z,88.5
2023-01-25T10:00:05.609Z,88.5
2023-01-25T10:03:03.750Z,88.5
2023-01-25T10:06:03.380Z,88.7
2023-01-25T10:09:03.459Z,88.7
2023-01-25T10:12:03.402Z,88.7
2023-01-25T10:15:03.397Z,88.7
2023-01-25T10:18:03.455Z,88.7
2023-01-25T10:21:03.383Z,88.9
2023-01-25T10:24:03.562Z,88.9
2023-01-25T10:27:03.493Z,88.9
2023-01-25T10:30:03.393Z,88.9
2023-01-25T10:33:03.372Z,88.9
2023-01-25T10:36:03.559Z,88.9
2023-01-25T10:39:03.400Z,88.9
2023-01-25T10:42:03.449Z,88.9
2023-01-25T10:45:03.479Z,88.9
2023-01-25T10:48:03.356Z,88.8
2023-01-25T10:51:03.423Z,88.8
2023-01-25T10:54:03.485Z,88.8
2023-01-25T10:57:03.541Z,88.8
2023-01-25T11:00:03.499Z,88.8
2023-01-25T11:03:03.614Z,88.8
2023-01-25T11:06:03.416Z,88.8
2023-01-25T11:09:03.661Z,88.9
2023-01-25T11:12:03.413Z,88.9
2023-01-25T11:15:03.377Z,88.9
2023-01-25T11:18:03.434Z,88.9
2023-01-25T11:21:03.445Z,88.8
2023-01-25T11:24:03.649Z,88.8
2023-01-25T11:27:03.422Z,88.8
2023-01-25T11:30:03.538Z,88.8
2023-01-25T11:33:03.540Z,88.8
2023-01-25T11:36:03.440Z,88.8
2023-01-25T11:39:03.623Z,88.8
2023-01-25T11:42:03.561Z,88.8
2023-01-25T11:45:03.393Z,88.8
2023-01-25T11:48:03.420Z,88.8
2023-01-25T11:51:03.416Z,88.7
2023-01-25T11:54:03.475Z,88.7
2023-01-25T11:57:03.399Z,88.7
2023-01-25T12:00:03.477Z,88.7
2023-01-25T12:03:03.708Z,88.7
2023-01-25T12:06:03.383Z,88.7
2023-01-25T12:09:03.510Z,88.7
2023-01-25T12:12:03.368Z,88.7
2023-01-25T12:15:04.688Z,88.7
2023-01-25T12:18:03.358Z,88.9
2023-01-25T12:21:04.038Z,88.9
2023-01-25T12:24:03.547Z,88.9
2023-01-25T12:27:03.433Z,88.9
2023-01-25T12:30:03.455Z,88.9
2023-01-25T12:33:17.269Z,88.9
2023-01-25T12:36:03.344Z,89
2023-01-25T12:39:03.514Z,89
2023-01-25T12:42:03.366Z,88.9
2023-01-25T12:45:03.462Z,88.9
2023-01-25T12:48:03.517Z,88.9
2023-01-25T12:51:03.472Z,88.9
2023-01-25T12:54:03.410Z,88.9
2023-01-25T12:57:03.383Z,88.7
2023-01-25T13:00:03.662Z,88.7
2023-01-25T13:03:03.449Z,88.7
2023-01-25T13:06:03.451Z,88.7
2023-01-25T13:09:03.437Z,88.7
2023-01-25T13:12:03.343Z,88.9
2023-01-25T13:15:03.415Z,88.8
2023-01-25T13:18:03.408Z,88.8
2023-01-25T13:21:03.588Z,88.8
2023-01-25T13:24:03.527Z,88.8
2023-01-25T13:27:03.457Z,88.8
2023-01-25T13:30:03.546Z,88.8
2023-01-25T13:33:03.478Z,88.8
2023-01-25T13:36:03.351Z,89
2023-01-25T13:39:06.895Z,89
2023-01-25T13:42:03.460Z,89
2023-01-25T13:45:03.370Z,89
2023-01-25T13:48:03.349Z,89
2023-01-25T13:51:03.419Z,89
2023-01-25T13:54:03.526Z,88.9
2023-01-25T13:57:03.408Z,88.9
2023-01-25T14:00:13.891Z,88.9
2023-01-25T14:03:03.338Z,88.9
2023-01-25T14:06:03.415Z,88.9
2023-01-25T14:09:03.529Z,88.9
2023-01-25T14:12:03.411Z,88.9
2023-01-25T14:15:03.425Z,88.9
2023-01-25T14:18:03.364Z,88.9
2023-01-25T14:21:03.452Z,88.9
2023-01-25T14:24:03.500Z,88.9
2023-01-25T14:27:03.564Z,88.9
2023-01-25T14:30:03.350Z,88.9
2023-01-25T14:33:03.446Z,88.9
2023-01-25T14:36:26.492Z,88.9
2023-01-25T14:39:07.059Z,88.9
2023-01-25T14:42:04.406Z,88.9
2023-01-25T14:45:03.430Z,88.9
2023-01-25T14:48:03.472Z,89.1
2023-01-25T14:51:03.320Z,89.1
2023-01-25T14:54:03.376Z,89.1
2023-01-25T14:57:03.364Z,89.1
2023-01-25T15:00:03.615Z,89.1
2023-01-25T15:03:03.367Z,89.1
2023-01-25T15:06:03.566Z,89.1
2023-01-25T15:09:03.405Z,89.1
2023-01-25T15:12:03.430Z,89.1
2023-01-25T15:15:03.364Z,89.1
2023-01-25T15:18:03.416Z,89.1
2023-01-25T15:21:03.377Z,89.1
2023-01-25T15:24:03.570Z,89.1
2023-01-25T15:27:03.418Z,89.1
2023-01-25T15:30:03.362Z,89.1
2023-01-25T15:33:03.466Z,89.1
2023-01-25T15:36:03.636Z,89.1
2023-01-25T15:39:03.380Z,88.5
2023-01-25T15:42:03.404Z,88.5
2023-01-25T15:45:03.355Z,88.5
2023-01-25T15:48:03.445Z,88.5
2023-01-25T15:51:03.371Z,88.5
2023-01-25T15:54:03.407Z,88.5
2023-01-25T15:57:03.398Z,88.5
2023-01-25T16:00:05.051Z,88.5
2023-01-25T16:03:03.332Z,88.5
2023-01-25T16:06:03.505Z,88.5
2023-01-25T16:09:03.310Z,88.5
2023-01-25T16:12:03.414Z,88.5
2023-01-25T16:15:03.359Z,88.5
2023-01-25T16:18:03.374Z,88.5
2023-01-25T16:21:03.324Z,88.5
2023-01-25T16:24:03.529Z,88.5
2023-01-25T16:27:03.320Z,88.5
2023-01-25T16:30:03.343Z,88.5
2023-01-25T16:33:03.447Z,88.5
2023-01-25T16:36:03.369Z,88.5
2023-01-25T16:39:03.368Z,88.5
2023-01-25T16:42:03.325Z,88.7
2023-01-25T16:45:03.327Z,88.7
2023-01-25T16:48:03.348Z,88.7
2023-01-25T16:51:03.402Z,88.7
2023-01-25T16:54:03.390Z,88.7
2023-01-25T16:57:22.186Z,88.7
2023-01-25T17:00:05.690Z,88.7
2023-01-25T17:03:03.482Z,88.7
2023-01-25T17:06:03.439Z,88.7
2023-01-25T17:09:25.558Z,88.7
2023-01-25T17:12:03.379Z,88.7
2023-01-25T17:15:03.396Z,88.7
2023-01-25T17:18:03.394Z,88.7
2023-01-25T17:21:03.434Z,88.7
2023-01-25T17:24:03.436Z,88.7
2023-01-25T17:27:03.474Z,88.7
2023-01-25T17:30:03.468Z,88.7
2023-01-25T17:33:03.394Z,88.6
2023-01-25T17:36:03.395Z,88.6
2023-01-25T17:39:03.479Z,88.6
2023-01-25T17:42:03.406Z,88.6
2023-01-25T17:45:03.559Z,88.6
2023-01-25T17:48:03.364Z,88.6
2023-01-25T17:51:03.364Z,88.6
2023-01-25T17:54:03.394Z,88.9
2023-01-25T17:57:03.307Z,88.9
2023-01-25T18:00:03.497Z,88.9
2023-01-25T18:03:03.335Z,88.9
2023-01-25T18:06:03.344Z,88.9
2023-01-25T18:09:03.320Z,88.9
2023-01-25T18:12:03.383Z,88.9
2023-01-25T18:15:03.347Z,88.9
2023-01-25T18:18:03.493Z,88.9
2023-01-25T18:21:03.396Z,89.2
2023-01-25T18:24:03.600Z,89.2
2023-01-25T18:27:03.372Z,89.2
2023-01-25T18:30:03.404Z,89.2
2023-01-25T18:33:03.344Z,89.2
2023-01-25T18:36:05.285Z,89.2
2023-01-25T18:39:03.309Z,89.2
2023-01-25T18:42:03.292Z,89.2
2023-01-25T18:45:03.435Z,89.2
2023-01-25T18:48:03.346Z,89.2
2023-01-25T18:51:03.451Z,89.2
2023-01-25T18:54:03.348Z,89.6
2023-01-25T18:57:03.320Z,89.6
2023-01-25T19:00:03.329Z,89.6
2023-01-25T19:03:03.544Z,89.6
2023-01-25T19:06:03.287Z,89.6
2023-01-25T19:09:03.363Z,89.6
2023-01-25T19:12:03.443Z,89.6
2023-01-25T19:15:03.446Z,89.6
2023-01-25T19:18:03.294Z,89.6
2023-01-25T19:21:03.347Z,89.6
2023-01-25T19:24:03.686Z,89.6
2023-01-25T19:27:03.433Z,89.6
2023-01-25T19:30:03.377Z,89.6
2023-01-25T19:33:03.477Z,89.6
2023-01-25T19:36:03.411Z,89.6
2023-01-25T19:39:03.283Z,89.6
2023-01-25T19:42:03.349Z,89.6
2023-01-25T19:45:03.635Z,89.6
2023-01-25T19:48:03.367Z,89.6
2023-01-25T19:51:03.503Z,89.6
2023-01-25T19:54:03.518Z,89.6
2023-01-25T19:57:03.621Z,89.6
2023-01-25T20:00:03.607Z,89.6
2023-01-25T20:03:19.143Z,89.6
2023-01-25T20:06:03.301Z,89.6
2023-01-25T20:09:03.369Z,89.6
2023-01-25T20:12:03.330Z,89.6
2023-01-25T20:15:03.449Z,89.6
2023-01-25T20:18:03.361Z,89.6
2023-01-25T20:21:03.457Z,89.6
2023-01-25T20:24:03.380Z,89.6
2023-01-25T20:27:06.634Z,89.6
2023-01-25T20:30:03.386Z,89.6
2023-01-25T20:33:03.358Z,89.6
2023-01-25T20:36:03.373Z,89.6
2023-01-25T20:39:03.294Z,89.7
2023-01-25T20:42:03.307Z,89.7
2023-01-25T20:45:03.341Z,89.7
2023-01-25T20:48:03.330Z,89.7
2023-01-25T20:51:03.339Z,89.7
2023-01-25T20:54:03.449Z,89.7
2023-01-25T20:57:03.426Z,89.7
2023-01-25T21:00:03.498Z,89.6
2023-01-25T21:03:03.432Z,89.6
2023-01-25T21:06:03.329Z,89.6
2023-01-25T21:09:03.366Z,89.6
2023-01-25T21:12:03.524Z,89.6
2023-01-25T21:15:03.345Z,89.6
2023-01-25T21:18:03.288Z,89.6
2023-01-25T21:21:03.285Z,89.6
2023-01-25T21:24:03.453Z,89.6
2023-01-25T21:27:03.369Z,89.6
2023-01-25T21:30:03.352Z,89.5
2023-01-25T21:33:03.281Z,89.5
2023-01-25T21:36:03.394Z,89.5
2023-01-25T21:39:03.370Z,89.5
2023-01-25T21:42:03.350Z,89.5
2023-01-25T21:45:03.719Z,89.5
2023-01-25T21:48:03.367Z,89.5
2023-01-25T21:51:03.325Z,89.5
2023-01-25T21:54:03.323Z,89.5
2023-01-25T21:57:03.308Z,89.5
2023-01-25T22:00:03.454Z,89.5
2023-01-25T22:03:03.314Z,89.5
2023-01-25T22:06:03.359Z,89.5
2023-01-25T22:09:03.390Z,89.5
2023-01-25T22:12:03.304Z,89.5
2023-01-25T22:15:03.281Z,89.5
2023-01-25T22:18:03.340Z,89.5
2023-01-25T22:21:03.482Z,89.5
2023-01-25T22:24:03.457Z,89.5
2023-01-25T22:27:03.309Z,89.5
2023-01-25T22:30:03.433Z,89.6
2023-01-25T22:33:03.296Z,89.6
2023-01-25T22:36:03.314Z,89.6
2023-01-25T22:39:03.336Z,89.6
2023-01-25T22:42:03.395Z,89.6
2023-01-25T22:45:03.309Z,89.6
2023-01-25T22:48:03.369Z,89.6
2023-01-25T22:51:03.354Z,89.6
2023-01-25T22:54:03.404Z,89.6
2023-01-25T22:57:03.350Z,89.6
2023-01-25T23:00:04.533Z,89.6
2023-01-25T23:03:03.675Z,89.6
2023-01-25T23:06:03.350Z,89.6
2023-01-25T23:09:03.412Z,89.6
2023-01-25T23:12:03.386Z,89.6
2023-01-25T23:15:03.410Z,89.6
2023-01-25T23:18:03.365Z,89.6
2023-01-25T23:21:03.379Z,89.6
2023-01-25T23:24:03.589Z,89.6
2023-01-25T23:27:03.357Z,88.7
2023-01-25T23:30:03.458Z,88.7
2023-01-25T23:33:03.302Z,88.7
2023-01-25T23:36:03.320Z,88.7
2023-01-25T23:39:03.328Z,88.7
2023-01-25T23:42:03.357Z,88.7
2023-01-25T23:45:03.337Z,88.7
2023-01-25T23:48:03.563Z,88.7
2023-01-25T23:51:03.300Z,88.7
2023-01-25T23:54:03.309Z,88.7
2023-01-25T23:57:03.316Z,88.7
